METAR Data
IDs: Format: Raw Decoded Include TAF

Data at: 1905 UTC 25 Mar 2019

KBPG 251855Z AUTO 05009G15KT 10SM CLR 20/06 A3027 RMK AO2 T02030056
KBPG 251835Z AUTO 09011G16KT 10SM CLR 20/05 A3027 RMK AO2 T02030051
KBPG 251815Z AUTO 06011G17KT 10SM CLR 20/05 A3028 RMK AO2 T02000053
KBPG 251755Z AUTO 06011G17KT 10SM CLR 19/05 A3028 RMK AO2 T01930049 10193 20093
KBPG 251735Z AUTO 08008KT 10SM CLR 19/05 A3029 RMK AO2 T01860053
KBPG 251715Z AUTO 06012KT 10SM CLR 18/06 A3030 RMK AO2 T01800058
KBPG 251655Z AUTO 06012G15KT 10SM CLR 17/05 A3030 RMK AO2 T01700054
KBPG 251635Z AUTO 08011KT 10SM CLR 17/06 A3030 RMK AO2 T01690057
KBPG 251615Z AUTO 07013G17KT 10SM CLR 16/06 A3029 RMK AO2 T01610056
KBPG 251555Z AUTO 06010KT 10SM CLR 15/06 A3029 RMK AO2 T01530060
KBPG 251535Z AUTO 06011KT 10SM CLR 14/06 A3028 RMK AO2 T01440059
KBPG 251515Z AUTO 06011G16KT 10SM CLR 14/06 A3027 RMK AO2 T01390059
KBPG 251455Z AUTO 07010KT 10SM CLR 13/06 A3026 RMK AO2 T01300060
KBPG 251435Z AUTO 06008KT 10SM CLR 12/06 A3026 RMK AO2 T01190062
KBPG 251415Z AUTO 06010KT 7SM CLR 11/07 A3025 RMK AO2 T01120066
KBPG 251355Z AUTO 05013KT 10SM 11/07 A3023 RMK AO2 T01050068
KBPG 251335Z AUTO 05011KT 10SM CLR 10/07 A3023 RMK AO2 T01000070
KBPG 251315Z AUTO 04010KT 10SM CLR 10/07 A3022 RMK AO2 T00950067
KBPG 251255Z AUTO 04010KT 10SM CLR 09/07 A3020 RMK AO2 T00940066
KBPG 251235Z AUTO 04009KT 10SM CLR 10/07 A3020 RMK AO2 T00960068
KBPG 251215Z AUTO 04011KT 10SM CLR 10/07 A3019 RMK AO2 T00960069
KBPG 251155Z AUTO 02009KT 10SM SCT110 09/07 A3018 RMK AO2 7//// T00930067 10160 20093
KBPG 251135Z AUTO 03008KT 10SM SCT110 10/07 A3017 RMK AO2 T00970068
KBPG 251115Z AUTO 04011KT 10SM CLR 10/07 A3016 RMK AO2 T01000067
KBPG 251055Z AUTO 03011KT 10SM CLR 10/07 A3015 RMK AO2 T01030067
KBPG 251035Z AUTO 02008KT 10SM CLR 11/07 A3015 RMK AO2 T01070066
KBPG 251015Z AUTO 04006KT 10SM CLR 11/06 A3013 RMK AO2 T01060064
KBPG 250955Z AUTO 04011KT 10SM CLR 11/07 A3012 RMK AO2 T01110065
KBPG 250935Z AUTO 05006KT 10SM CLR 11/06 A3012 RMK AO2 T01100061
KBPG 250915Z AUTO 04009KT 10SM CLR 12/06 A3012 RMK AO2 T01150061
KBPG 250855Z AUTO 04013KT 10SM CLR 12/06 A3012 RMK AO2 T01210061
KBPG 250835Z AUTO 02012KT 10SM CLR 12/06 A3012 RMK AO2 T01210060
KBPG 250815Z AUTO 06009KT 10SM CLR 13/06 A3012 RMK AO2 T01250060
KBPG 250755Z AUTO 04010KT 10SM CLR 13/06 A3012 RMK AO2 T01320061
KBPG 250735Z AUTO 05013KT 10SM CLR 14/06 A3011 RMK AO2 T01400061
KBPG 250715Z AUTO 06012KT 10SM CLR 15/06 A3011 RMK AO2 T01450060
KBPG 250655Z AUTO 07013KT 10SM CLR 15/06 A3011 RMK AO2 T01520060
KBPG 250635Z AUTO 07015KT 10SM CLR 16/06 A3011 RMK AO2 T01570060
KBPG 250615Z AUTO 07012KT 10SM CLR 16/06 A3011 RMK AO2 T01590057
KBPG 250555Z AUTO 08012KT 10SM CLR 16/06 A3011 RMK AO2 6//// T01580057
KBPG 250535Z AUTO 08013G19KT 10SM CLR 16/06 A3011 RMK AO2 T01610056
KBPG 250515Z AUTO 08008KT 10SM CLR 16/06 A3011 RMK AO2 T01630055
KBPG 250455Z AUTO 07012KT 10SM CLR 17/06 A3010 RMK AO2 T01670055
KBPG 250435Z AUTO 07012KT 10SM CLR 17/06 A3010 RMK AO2 T01680055
KBPG 250415Z AUTO 05012KT 10SM CLR 17/05 A3010 RMK AO2 T01740052
KBPG 250355Z AUTO 07011G15KT 10SM CLR 18/05 A3009 RMK AO2 T01810048
KBPG 250335Z AUTO 06011KT 10SM CLR 17/01 A3009 RMK AO2 T01690014
KBPG 250320Z AUTO 04008KT 10SM CLR 19/M02 A3008 RMK AO2 T01851025
KBPG 250250Z AUTO 13004KT 10SM CLR 16/M02 A3006 RMK AO2 6//// T01641020
KBPG 250235Z AUTO 15004KT 10SM CLR 16/M01 A3005 RMK AO2 T01601014
KBPG 250215Z AUTO 20005KT 10SM CLR 20/M03 A3005 RMK AO2 T01951026
KBPG 250200Z AUTO 23005KT 10SM CLR 19/M02 A3004 RMK AO2 T01861016
KBPG 250135Z AUTO 24003KT 10SM CLR 19/M01 A3003 RMK AO2 T01931014
KBPG 250110Z AUTO 25006KT 10SM CLR 22/M03 A3003 RMK AO2 T02211032
KBPG 250055Z AUTO 25007KT 10SM CLR 23/M03 A3003 RMK AO2 T02321035
KBPG 250035Z AUTO 25008KT 10SM CLR 25/M04 A3002 RMK AO2 T02501036
KBPG 250015Z AUTO 24010KT 10SM CLR 26/M02 A3002 RMK AO2 T02571022
KBPG 242355Z AUTO 23010KT 10SM CLR 27/M03 A3002 RMK AO2 T02651026 10275 20220
KBPG 242335Z AUTO 24013G16KT 10SM CLR 27/M04 A3001 RMK AO2 T02671036
KBPG 242320Z AUTO 23012G16KT 10SM CLR 27/M04 A3001 RMK AO2 T02691038
KBPG 242255Z AUTO 23013KT 10SM CLR 27/M04 A3001 RMK AO2 T02711037
KBPG 242235Z AUTO 22012G20KT 10SM CLR 27/M02 A3001 RMK AO2 T02721023
KBPG 242215Z AUTO 21007KT 10SM CLR 27/M02 A3001 RMK AO2 T02701021
KBPG 242155Z AUTO 26015G18KT 10SM CLR 27/M03 A3002 RMK AO2 T02721031
KBPG 242135Z AUTO 24014KT 10SM CLR 27/M01 A3002 RMK AO2 T02721013
KBPG 242115Z AUTO 26007KT 10SM CLR 27/00 A3002 RMK AO2 T02660000
KBPG 242055Z AUTO 28006G14KT 10SM CLR 26/01 A3002 RMK AO2 T02630010
KBPG 242035Z AUTO 21003KT 10SM CLR 26/01 A3004 RMK AO2 T02620008
KBPG 242015Z AUTO 23011G15KT 10SM CLR 26/02 A3005 RMK AO2 T02590020
KBPG 241955Z AUTO 27007KT 10SM CLR 26/03 A3005 RMK AO2 T02560028
KBPG 241935Z AUTO 23004G14KT 10SM CLR 25/03 A3006 RMK AO2 T02500030
KBPG 241915Z AUTO 25007G15KT 10SM CLR 24/04 A3008 RMK AO2 T02440036
KBPG 241855Z AUTO 25008KT 10SM CLR 24/06 A3009 RMK AO2 T02400064
KBPG 241835Z AUTO 24009KT 10SM CLR 24/07 A3009 RMK AO2 T02360074
KBPG 241815Z AUTO 24012KT 10SM CLR 23/07 A3010 RMK AO2 T02300074
KBPG 241755Z AUTO 23009G15KT 10SM CLR 22/09 A3010 RMK AO2 T02200087 10224 20118
KBPG 241735Z AUTO 24010G14KT 7SM CLR 22/09 A3011 RMK AO2 T02190094
KBPG 241715Z AUTO 23010G14KT 10SM CLR 21/11 A3012 RMK AO2 T02130109
KBPG 241655Z AUTO 25008KT 10SM CLR 20/12 A3012 RMK AO2 T02020122
KBPG 241635Z AUTO 27005KT 10SM CLR 19/13 A3012 RMK AO2 T01910134
KBPG 241615Z AUTO 24010KT 7SM CLR 19/13 A3012 RMK AO2 T01890131
KBPG 241555Z AUTO 24010KT 7SM CLR 18/13 A3012 RMK AO2 T01770130
KBPG 241535Z AUTO 24008KT 10SM SCT009 17/13 A3012 RMK AO2 T01670132
KBPG 241515Z AUTO 20009KT 7SM CLR 16/13 A3011 RMK AO2 T01580130
KBPG 241455Z AUTO 20010KT 7SM CLR 15/13 A3010 RMK AO2 T01470127
KBPG 241435Z AUTO 20007KT 7SM CLR 14/13 A3009 RMK AO2 T01420125
KBPG 241415Z AUTO 18008KT 5SM CLR 14/12 A3009 RMK AO2 T01360124
KBPG 241355Z AUTO 17006KT 4SM CLR 13/12 A3008 RMK AO2 T01300122
KBPG 241335Z AUTO 16004KT 3SM CLR 12/12 A3007 RMK AO2 T01220117
KBPG 241315Z AUTO 16004KT 3SM SCT009 12/12 A3006 RMK AO2 T01200115
KBPG 241255Z AUTO 18006KT 5SM BKN009 12/11 A3005 RMK AO2 T01200113
KBPG 241235Z AUTO 18006KT 7SM BKN005 BKN009 13/12 A3005 RMK AO2 T01270117
KBPG 241215Z AUTO 20009KT 10SM OVC007 14/12 A3005 RMK AO2 T01350123
KBPG 241155Z AUTO 17007KT 7SM OVC007 12/11 A3005 RMK AO2 T01190110 10122 20090
KBPG 241135Z AUTO 16006KT 10SM BKN009 12/11 A3004 RMK AO2 T01150105
KBPG 241115Z AUTO 17006KT 10SM SCT009 10/09 A3004 RMK AO2 T01000090
KBPG 241055Z AUTO 16008KT 10SM CLR 10/08 A3004 RMK AO2 T00960082
KBPG 241035Z AUTO 16006KT 10SM CLR 09/07 A3004 RMK AO2 T00910070
KBPG 241015Z AUTO 16005KT 10SM CLR 09/07 A3004 RMK AO2 T00930066
KBPG 240955Z AUTO 16006KT 10SM CLR 09/06 A3004 RMK AO2 T00930060
KBPG 240935Z AUTO 16007KT 10SM CLR 10/05 A3004 RMK AO2 T00960052
KBPG 240915Z AUTO 16007KT 10SM CLR 10/05 A3004 RMK AO2 T00980047
KBPG 240855Z AUTO 17008KT 10SM CLR 10/04 A3004 RMK AO2 T01020042
KBPG 240835Z AUTO 16008KT 10SM CLR 10/04 A3004 RMK AO2 T00960035
KBPG 240815Z AUTO 17007KT 10SM SCT110 10/03 A3004 RMK AO2 T01020032
KBPG 240755Z AUTO 17007KT 10SM CLR 10/03 A3004 RMK AO2 T00950026
KBPG 240735Z AUTO 16009KT 10SM CLR 10/02 A3004 RMK AO2 T00980018
KBPG 240715Z AUTO 16010KT 10SM CLR 11/01 A3004 RMK AO2 T01060006